sensor_id;sensor_type;location;lat;lon;timestamp;pressure;altitude;pressure_sealevel;temperature;humidity
12793;BME280;6460;42.684;23.260;2024-01-15T00:00:57;94014.84;;;-0.59;95.23
12793;BME280;6460;42.684;23.260;2024-01-15T00:03:29;94030.88;;;-1.04;95.11
12793;BME280;6460;42.684;23.260;2024-01-15T00:05:57;94026.75;;;-0.83;95.92
12793;BME280;6460;42.684;23.260;2024-01-15T00:08:26;94023.59;;;-0.85;96.86
12793;BME280;6460;42.684;23.260;2024-01-15T00:10:54;94014.50;;;-0.79;98.29
12793;BME280;6460;42.684;23.260;2024-01-15T00:13:22;94016.91;;;-1.05;97.32
12793;BME280;6460;42.684;23.260;2024-01-15T00:15:51;94016.69;;;-1.58;97.62
12793;BME280;6460;42.684;23.260;2024-01-15T00:18:20;94014.19;;;-1.00;97.47
12793;BME280;6460;42.684;23.260;2024-01-15T00:20:48;94010.19;;;-1.11;97.37
12793;BME280;6460;42.684;23.260;2024-01-15T00:23:16;94022.56;;;-1.12;97.98
12793;BME280;6460;42.684;23.260;2024-01-15T00:25:44;94022.13;;;-1.27;98.03
12793;BME280;6460;42.684;23.260;2024-01-15T00:28:12;94019.00;;;-1.16;97.51
12793;BME280;6460;42.684;23.260;2024-01-15T00:30:40;94026.63;;;-1.28;99.08
12793;BME280;6460;42.684;23.260;2024-01-15T00:33:09;94018.00;;;-1.06;98.99
12793;BME280;6460;42.684;23.260;2024-01-15T00:35:38;94021.09;;;-0.90;97.74
12793;BME280;6460;42.684;23.260;2024-01-15T00:38:06;94022.91;;;-1.27;98.89
12793;BME280;6460;42.684;23.260;2024-01-15T00:40:34;94026.63;;;-1.28;100.00
12793;BME280;6460;42.684;23.260;2024-01-15T00:43:02;94018.78;;;-1.05;99.80
12793;BME280;6460;42.684;23.260;2024-01-15T00:45:33;94023.47;;;-1.02;98.26
12793;BME280;6460;42.684;23.260;2024-01-15T00:48:00;94020.50;;;-1.01;97.38
12793;BME280;6460;42.684;23.260;2024-01-15T00:50:29;94016.09;;;-1.28;98.76
12793;BME280;6460;42.684;23.260;2024-01-15T00:52:59;94016.63;;;-1.17;99.31
12793;BME280;6460;42.684;23.260;2024-01-15T00:55:28;94018.13;;;-1.25;100.00
12793;BME280;6460;42.684;23.260;2024-01-15T00:57:56;94016.84;;;-1.27;100.00
12793;BME280;6460;42.684;23.260;2024-01-15T01:00:23;94016.75;;;-1.09;100.00
12793;BME280;6460;42.684;23.260;2024-01-15T01:02:51;94021.34;;;-1.28;100.00
12793;BME280;6460;42.684;23.260;2024-01-15T01:05:19;94007.25;;;-1.10;100.00
12793;BME280;6460;42.684;23.260;2024-01-15T01:07:48;94009.34;;;-1.34;100.00
12793;BME280;6460;42.684;23.260;2024-01-15T01:10:16;94003.38;;;-1.26;99.80
12793;BME280;6460;42.684;23.260;2024-01-15T01:12:44;94014.41;;;-1.24;99.58
12793;BME280;6460;42.684;23.260;2024-01-15T01:15:12;94015.13;;;-1.73;98.68
12793;BME280;6460;42.684;23.260;2024-01-15T01:17:40;94011.50;;;-1.77;100.00
12793;BME280;6460;42.684;23.260;2024-01-15T01:20:09;94009.22;;;-1.97;100.00
12793;BME280;6460;42.684;23.260;2024-01-15T01:22:37;94004.56;;;-2.00;100.00
12793;BME280;6460;42.684;23.260;2024-01-15T01:25:07;94007.50;;;-1.74;100.00
12793;BME280;6460;42.684;23.260;2024-01-15T01:27:35;94001.06;;;-1.68;100.00
12793;BME280;6460;42.684;23.260;2024-01-15T01:30:04;93988.97;;;-1.69;100.00
12793;BME280;6460;42.684;23.260;2024-01-15T01:32:33;93993.34;;;-1.65;100.00
12793;BME280;6460;42.684;23.260;2024-01-15T01:35:01;93991.31;;;-1.95;100.00
12793;BME280;6460;42.684;23.260;2024-01-15T01:37:29;93988.66;;;-1.81;100.00
12793;BME280;6460;42.684;23.260;2024-01-15T01:39:57;93985.84;;;-1.71;100.00
12793;BME280;6460;42.684;23.260;2024-01-15T01:42:27;93985.97;;;-1.76;100.00
12793;BME280;6460;42.684;23.260;2024-01-15T01:44:54;93987.81;;;-1.63;100.00
12793;BME280;6460;42.684;23.260;2024-01-15T01:47:22;93977.16;;;-1.99;100.00
12793;BME280;6460;42.684;23.260;2024-01-15T01:49:52;93981.25;;;-1.93;100.00
12793;BME280;6460;42.684;23.260;2024-01-15T01:52:20;93976.41;;;-1.86;100.00
12793;BME280;6460;42.684;23.260;2024-01-15T01:54:49;93980.75;;;-1.81;100.00
12793;BME280;6460;42.684;23.260;2024-01-15T01:57:17;93981.38;;;-1.57;100.00
12793;BME280;6460;42.684;23.260;2024-01-15T01:59:47;93972.16;;;-1.46;100.00
12793;BME280;6460;42.684;23.260;2024-01-15T02:02:16;93973.94;;;-1.69;100.00
12793;BME280;6460;42.684;23.260;2024-01-15T02:04:44;93965.75;;;-1.67;100.00
12793;BME280;6460;42.684;23.260;2024-01-15T02:07:11;93969.06;;;-1.48;100.00
12793;BME280;6460;42.684;23.260;2024-01-15T02:09:40;93972.94;;;-1.32;100.00
12793;BME280;6460;42.684;23.260;2024-01-15T02:12:08;93960.63;;;-1.23;100.00
12793;BME280;6460;42.684;23.260;2024-01-15T02:14:36;93958.78;;;-1.22;100.00
12793;BME280;6460;42.684;23.260;2024-01-15T02:17:06;93954.97;;;-1.30;99.77
12793;BME280;6460;42.684;23.260;2024-01-15T02:19:34;93946.59;;;-1.32;99.81
12793;BME280;6460;42.684;23.260;2024-01-15T02:22:01;93924.91;;;-1.29;99.09
12793;BME280;6460;42.684;23.260;2024-01-15T02:24:30;93911.81;;;-1.34;99.39
12793;BME280;6460;42.684;23.260;2024-01-15T02:26:58;93915.09;;;-1.15;98.21
12793;BME280;6460;42.684;23.260;2024-01-15T02:29:25;93902.66;;;-1.36;98.14
12793;BME280;6460;42.684;23.260;2024-01-15T02:31:53;93902.69;;;-1.50;96.74
12793;BME280;6460;42.684;23.260;2024-01-15T02:34:20;93914.25;;;-1.73;97.91
12793;BME280;6460;42.684;23.260;2024-01-15T02:36:48;93920.41;;;-1.64;97.61
12793;BME280;6460;42.684;23.260;2024-01-15T02:39:16;93911.56;;;-1.46;96.79
12793;BME280;6460;42.684;23.260;2024-01-15T02:41:45;93913.00;;;-1.40;95.75
12793;BME280;6460;42.684;23.260;2024-01-15T02:44:14;93911.56;;;-1.95;97.23
12793;BME280;6460;42.684;23.260;2024-01-15T02:46:42;93914.72;;;-1.57;99.47
12793;BME280;6460;42.684;23.260;2024-01-15T02:49:10;93909.94;;;-1.55;97.90
12793;BME280;6460;42.684;23.260;2024-01-15T02:51:38;93914.66;;;-1.66;99.75
12793;BME280;6460;42.684;23.260;2024-01-15T02:54:06;93909.53;;;-1.49;98.71
12793;BME280;6460;42.684;23.260;2024-01-15T02:56:34;93901.69;;;-1.40;98.16
12793;BME280;6460;42.684;23.260;2024-01-15T02:59:03;93904.50;;;-1.73;99.32
12793;BME280;6460;42.684;23.260;2024-01-15T03:01:31;93900.56;;;-1.62;100.00
12793;BME280;6460;42.684;23.260;2024-01-15T03:04:00;93919.03;;;-1.75;100.00
12793;BME280;6460;42.684;23.260;2024-01-15T03:06:27;93912.22;;;-1.40;99.60
12793;BME280;6460;42.684;23.260;2024-01-15T03:08:55;93905.31;;;-1.50;98.01
12793;BME280;6460;42.684;23.260;2024-01-15T03:11:23;93898.50;;;-1.37;98.39
12793;BME280;6460;42.684;23.260;2024-01-15T03:13:51;93902.13;;;-1.47;97.46
12793;BME280;6460;42.684;23.260;2024-01-15T03:16:20;93882.19;;;-1.39;98.40
12793;BME280;6460;42.684;23.260;2024-01-15T03:18:48;93887.63;;;-1.36;98.03
12793;BME280;6460;42.684;23.260;2024-01-15T03:21:16;93881.31;;;-1.35;99.46
12793;BME280;6460;42.684;23.260;2024-01-15T03:23:44;93881.41;;;-1.18;98.05
12793;BME280;6460;42.684;23.260;2024-01-15T03:26:12;93881.97;;;-1.29;97.87
12793;BME280;6460;42.684;23.260;2024-01-15T03:28:40;93876.41;;;-1.05;98.41
12793;BME280;6460;42.684;23.260;2024-01-15T03:31:08;93884.44;;;-1.11;97.43
12793;BME280;6460;42.684;23.260;2024-01-15T03:33:37;93878.38;;;-1.11;97.54
12793;BME280;6460;42.684;23.260;2024-01-15T03:36:05;93894.31;;;-1.52;98.34
12793;BME280;6460;42.684;23.260;2024-01-15T03:38:34;93884.31;;;-1.28;98.92
12793;BME280;6460;42.684;23.260;2024-01-15T03:41:02;93886.66;;;-1.40;100.00
12793;BME280;6460;42.684;23.260;2024-01-15T03:43:30;93879.97;;;-1.60;98.71
12793;BME280;6460;42.684;23.260;2024-01-15T03:45:57;93879.63;;;-1.80;100.00
12793;BME280;6460;42.684;23.260;2024-01-15T03:48:25;93887.22;;;-1.65;100.00
12793;BME280;6460;42.684;23.260;2024-01-15T03:50:55;93871.22;;;-1.33;100.00
12793;BME280;6460;42.684;23.260;2024-01-15T03:53:23;93875.47;;;-1.45;100.00
12793;BME280;6460;42.684;23.260;2024-01-15T03:55:51;93877.34;;;-1.24;100.00
12793;BME280;6460;42.684;23.260;2024-01-15T03:58:19;93873.03;;;-1.20;100.00
12793;BME280;6460;42.684;23.260;2024-01-15T04:00:47;93871.13;;;-1.05;100.00
12793;BME280;6460;42.684;23.260;2024-01-15T04:03:15;93859.03;;;-1.07;100.00
12793;BME280;6460;42.684;23.260;2024-01-15T04:05:43;93855.94;;;-1.09;100.00
12793;BME280;6460;42.684;23.260;2024-01-15T04:08:12;93859.81;;;-1.06;100.00
12793;BME280;6460;42.684;23.260;2024-01-15T04:10:40;93856.84;;;-1.49;100.00
12793;BME280;6460;42.684;23.260;2024-01-15T04:13:08;93859.91;;;-1.11;100.00
12793;BME280;6460;42.684;23.260;2024-01-15T04:15:35;93863.06;;;-1.09;99.61
12793;BME280;6460;42.684;23.260;2024-01-15T04:18:03;93864.56;;;-1.52;99.18
12793;BME280;6460;42.684;23.260;2024-01-15T04:20:31;93856.25;;;-1.46;100.00
12793;BME280;6460;42.684;23.260;2024-01-15T04:22:58;93861.88;;;-1.39;100.00
12793;BME280;6460;42.684;23.260;2024-01-15T04:25:28;93868.72;;;-1.38;100.00
12793;BME280;6460;42.684;23.260;2024-01-15T04:27:56;93862.25;;;-1.32;100.00
12793;BME280;6460;42.684;23.260;2024-01-15T04:30:24;93864.41;;;-1.34;98.88
12793;BME280;6460;42.684;23.260;2024-01-15T04:32:52;93868.75;;;-1.51;99.09
12793;BME280;6460;42.684;23.260;2024-01-15T04:35:20;93869.97;;;-1.71;100.00
12793;BME280;6460;42.684;23.260;2024-01-15T04:37:48;93875.78;;;-1.47;99.78
12793;BME280;6460;42.684;23.260;2024-01-15T04:40:16;93861.97;;;-1.66;100.00
12793;BME280;6460;42.684;23.260;2024-01-15T04:42:46;93863.69;;;-1.62;100.00
12793;BME280;6460;42.684;23.260;2024-01-15T04:45:14;93855.56;;;-2.01;100.00
12793;BME280;6460;42.684;23.260;2024-01-15T04:47:44;93860.03;;;-1.74;100.00
12793;BME280;6460;42.684;23.260;2024-01-15T04:50:13;93860.41;;;-1.67;100.00
12793;BME280;6460;42.684;23.260;2024-01-15T04:52:40;93845.78;;;-1.73;100.00
12793;BME280;6460;42.684;23.260;2024-01-15T04:55:08;93841.75;;;-2.06;100.00
12793;BME280;6460;42.684;23.260;2024-01-15T04:57:35;93831.66;;;-1.91;100.00
12793;BME280;6460;42.684;23.260;2024-01-15T05:00:06;93841.78;;;-1.71;100.00
12793;BME280;6460;42.684;23.260;2024-01-15T05:02:34;93832.50;;;-1.68;100.00
12793;BME280;6460;42.684;23.260;2024-01-15T05:05:01;93831.53;;;-1.72;100.00
12793;BME280;6460;42.684;23.260;2024-01-15T05:07:29;93820.78;;;-1.62;100.00
12793;BME280;6460;42.684;23.260;2024-01-15T05:09:57;93823.22;;;-2.01;100.00
12793;BME280;6460;42.684;23.260;2024-01-15T05:12:26;93827.19;;;-1.90;100.00
12793;BME280;6460;42.684;23.260;2024-01-15T05:14:53;93828.56;;;-2.06;100.00
12793;BME280;6460;42.684;23.260;2024-01-15T05:17:22;93838.31;;;-1.93;100.00
12793;BME280;6460;42.684;23.260;2024-01-15T05:19:49;93837.66;;;-2.26;100.00
12793;BME280;6460;42.684;23.260;2024-01-15T05:22:17;93832.41;;;-2.40;100.00
12793;BME280;6460;42.684;23.260;2024-01-15T05:24:44;93838.63;;;-2.22;100.00
12793;BME280;6460;42.684;23.260;2024-01-15T05:27:11;93832.50;;;-2.31;100.00
12793;BME280;6460;42.684;23.260;2024-01-15T05:29:39;93833.75;;;-2.29;100.00
12793;BME280;6460;42.684;23.260;2024-01-15T05:32:06;93833.09;;;-2.34;100.00
12793;BME280;6460;42.684;23.260;2024-01-15T05:34:35;93830.25;;;-2.38;100.00
12793;BME280;6460;42.684;23.260;2024-01-15T05:37:02;93817.97;;;-2.29;100.00
12793;BME280;6460;42.684;23.260;2024-01-15T05:39:29;93822.47;;;-2.43;100.00
12793;BME280;6460;42.684;23.260;2024-01-15T05:41:58;93821.59;;;-2.38;100.00
12793;BME280;6460;42.684;23.260;2024-01-15T05:44:25;93812.44;;;-2.27;100.00
12793;BME280;6460;42.684;23.260;2024-01-15T05:46:53;93811.34;;;-2.26;100.00
12793;BME280;6460;42.684;23.260;2024-01-15T05:49:20;93813.50;;;-2.28;100.00
12793;BME280;6460;42.684;23.260;2024-01-15T05:51:49;93804.50;;;-2.14;100.00
12793;BME280;6460;42.684;23.260;2024-01-15T05:54:18;93808.75;;;-1.90;100.00
12793;BME280;6460;42.684;23.260;2024-01-15T05:56:45;93805.47;;;-2.09;100.00
12793;BME280;6460;42.684;23.260;2024-01-15T05:59:12;93806.53;;;-2.10;100.00
12793;BME280;6460;42.684;23.260;2024-01-15T06:01:40;93814.66;;;-2.48;100.00
12793;BME280;6460;42.684;23.260;2024-01-15T06:04:07;93805.41;;;-2.04;100.00
12793;BME280;6460;42.684;23.260;2024-01-15T06:06:34;93811.69;;;-1.92;100.00
12793;BME280;6460;42.684;23.260;2024-01-15T06:12:59;93809.47;;;-1.98;100.00
12793;BME280;6460;42.684;23.260;2024-01-15T06:15:32;93812.84;;;-1.84;100.00
12793;BME280;6460;42.684;23.260;2024-01-15T06:17:59;93800.84;;;-1.77;100.00
12793;BME280;6460;42.684;23.260;2024-01-15T06:20:27;93804.19;;;-1.63;100.00
12793;BME280;6460;42.684;23.260;2024-01-15T06:22:55;93803.03;;;-1.56;100.00
12793;BME280;6460;42.684;23.260;2024-01-15T06:25:23;93793.34;;;-1.83;100.00
12793;BME280;6460;42.684;23.260;2024-01-15T06:27:51;93805.47;;;-2.09;100.00
12793;BME280;6460;42.684;23.260;2024-01-15T06:30:21;93800.25;;;-1.74;100.00
12793;BME280;6460;42.684;23.260;2024-01-15T06:32:49;93810.75;;;-1.60;100.00
12793;BME280;6460;42.684;23.260;2024-01-15T06:35:17;93809.31;;;-1.44;100.00
12793;BME280;6460;42.684;23.260;2024-01-15T06:37:45;93802.84;;;-1.60;100.00
12793;BME280;6460;42.684;23.260;2024-01-15T06:40:13;93803.53;;;-1.46;100.00
12793;BME280;6460;42.684;23.260;2024-01-15T06:42:41;93819.34;;;-1.46;100.00
12793;BME280;6460;42.684;23.260;2024-01-15T06:45:09;93819.16;;;-1.49;100.00
12793;BME280;6460;42.684;23.260;2024-01-15T06:47:39;93815.25;;;-1.38;100.00
12793;BME280;6460;42.684;23.260;2024-01-15T06:50:08;93804.59;;;-2.05;100.00
12793;BME280;6460;42.684;23.260;2024-01-15T06:52:36;93804.88;;;-2.06;100.00
12793;BME280;6460;42.684;23.260;2024-01-15T06:55:05;93812.72;;;-2.29;100.00
12793;BME280;6460;42.684;23.260;2024-01-15T06:57:33;93823.75;;;-1.77;100.00
12793;BME280;6460;42.684;23.260;2024-01-15T07:00:09;93817.91;;;-1.52;100.00
12793;BME280;6460;42.684;23.260;2024-01-15T07:02:39;93831.00;;;-1.25;100.00
12793;BME280;6460;42.684;23.260;2024-01-15T07:05:08;93819.00;;;-1.09;100.00
12793;BME280;6460;42.684;23.260;2024-01-15T07:07:36;93821.09;;;-0.97;100.00
12793;BME280;6460;42.684;23.260;2024-01-15T07:10:07;93820.03;;;-1.18;100.00
12793;BME280;6460;42.684;23.260;2024-01-15T07:12:38;93823.69;;;-1.28;100.00
12793;BME280;6460;42.684;23.260;2024-01-15T07:15:06;93829.97;;;-1.15;100.00
12793;BME280;6460;42.684;23.260;2024-01-15T07:17:34;93819.34;;;-1.01;100.00
12793;BME280;6460;42.684;23.260;2024-01-15T07:20:09;93813.47;;;-0.98;100.00
12793;BME280;6460;42.684;23.260;2024-01-15T07:22:39;93817.88;;;-0.85;100.00
12793;BME280;6460;42.684;23.260;2024-01-15T07:25:08;93813.06;;;-0.61;100.00
12793;BME280;6460;42.684;23.260;2024-01-15T07:27:35;93812.91;;;-0.56;100.00
12793;BME280;6460;42.684;23.260;2024-01-15T07:30:04;93811.13;;;-0.38;100.00
12793;BME280;6460;42.684;23.260;2024-01-15T07:32:32;93801.03;;;-0.45;100.00
12793;BME280;6460;42.684;23.260;2024-01-15T07:34:59;93799.38;;;-0.24;100.00
12793;BME280;6460;42.684;23.260;2024-01-15T07:37:28;93790.03;;;-0.38;100.00
12793;BME280;6460;42.684;23.260;2024-01-15T07:39:56;93796.44;;;-0.14;99.11
12793;BME280;6460;42.684;23.260;2024-01-15T07:42:23;93812.72;;;-0.29;98.32
12793;BME280;6460;42.684;23.260;2024-01-15T07:44:51;93804.38;;;-0.05;97.97
12793;BME280;6460;42.684;23.260;2024-01-15T07:47:19;93803.66;;;0.12;95.86
12793;BME280;6460;42.684;23.260;2024-01-15T07:49:47;93801.63;;;0.17;95.07
12793;BME280;6460;42.684;23.260;2024-01-15T07:52:15;93817.34;;;0.39;94.75
12793;BME280;6460;42.684;23.260;2024-01-15T07:54:44;93813.91;;;0.22;93.52
12793;BME280;6460;42.684;23.260;2024-01-15T07:57:11;93785.94;;;0.21;93.44
12793;BME280;6460;42.684;23.260;2024-01-15T07:59:39;93775.69;;;0.45;93.90
12793;BME280;6460;42.684;23.260;2024-01-15T08:02:06;93782.84;;;0.53;93.12
12793;BME280;6460;42.684;23.260;2024-01-15T08:04:34;93781.44;;;0.47;93.72
12793;BME280;6460;42.684;23.260;2024-01-15T08:07:02;93783.28;;;0.81;93.05
12793;BME280;6460;42.684;23.260;2024-01-15T08:09:30;93803.50;;;0.77;91.04
12793;BME280;6460;42.684;23.260;2024-01-15T08:12:00;93797.31;;;0.73;90.15
12793;BME280;6460;42.684;23.260;2024-01-15T08:14:28;93797.75;;;0.83;90.13
12793;BME280;6460;42.684;23.260;2024-01-15T08:16:56;93798.34;;;0.97;88.88
12793;BME280;6460;42.684;23.260;2024-01-15T08:19:23;93808.00;;;0.93;88.19
12793;BME280;6460;42.684;23.260;2024-01-15T08:21:51;93805.22;;;0.98;88.01
12793;BME280;6460;42.684;23.260;2024-01-15T08:24:19;93812.22;;;0.94;88.51
12793;BME280;6460;42.684;23.260;2024-01-15T08:26:47;93820.09;;;1.20;88.40
12793;BME280;6460;42.684;23.260;2024-01-15T08:29:16;93809.97;;;1.31;86.50
12793;BME280;6460;42.684;23.260;2024-01-15T08:31:47;93797.66;;;1.26;85.85
12793;BME280;6460;42.684;23.260;2024-01-15T08:34:15;93808.06;;;1.31;85.63
12793;BME280;6460;42.684;23.260;2024-01-15T08:36:43;93797.91;;;0.35;87.24
12793;BME280;6460;42.684;23.260;2024-01-15T08:39:11;93787.97;;;0.49;88.84
12793;BME280;6460;42.684;23.260;2024-01-15T08:41:39;93790.59;;;0.75;88.74
12793;BME280;6460;42.684;23.260;2024-01-15T08:44:07;93779.03;;;1.05;88.42
12793;BME280;6460;42.684;23.260;2024-01-15T08:46:37;93800.25;;;0.88;88.10
12793;BME280;6460;42.684;23.260;2024-01-15T08:49:05;93790.97;;;1.29;87.52
12793;BME280;6460;42.684;23.260;2024-01-15T08:51:33;93786.47;;;1.21;86.79
12793;BME280;6460;42.684;23.260;2024-01-15T08:54:01;93778.41;;;1.08;86.95
12793;BME280;6460;42.684;23.260;2024-01-15T08:56:30;93771.88;;;1.15;86.70
12793;BME280;6460;42.684;23.260;2024-01-15T08:58:58;93759.59;;;0.93;86.11
12793;BME280;6460;42.684;23.260;2024-01-15T09:01:30;93748.16;;;1.94;96.81
12793;BME280;6460;42.684;23.260;2024-01-15T09:03:59;93759.56;;;1.86;93.06
12793;BME280;6460;42.684;23.260;2024-01-15T09:06:27;93743.81;;;1.31;86.28
12793;BME280;6460;42.684;23.260;2024-01-15T09:08:55;93730.47;;;1.77;84.43
12793;BME280;6460;42.684;23.260;2024-01-15T09:11:23;93714.63;;;2.19;81.44
12793;BME280;6460;42.684;23.260;2024-01-15T09:13:51;93701.25;;;2.36;80.67
12793;BME280;6460;42.684;23.260;2024-01-15T09:16:19;93723.09;;;1.62;80.65
12793;BME280;6460;42.684;23.260;2024-01-15T09:18:47;93707.28;;;2.36;81.01
12793;BME280;6460;42.684;23.260;2024-01-15T09:21:18;93697.38;;;2.66;79.85
12793;BME280;6460;42.684;23.260;2024-01-15T09:23:46;93697.81;;;2.35;79.96
12793;BME280;6460;42.684;23.260;2024-01-15T09:26:14;93693.06;;;2.41;81.08
12793;BME280;6460;42.684;23.260;2024-01-15T09:28:42;93697.63;;;2.73;79.16
12793;BME280;6460;42.684;23.260;2024-01-15T09:31:10;93698.94;;;2.67;79.72
12793;BME280;6460;42.684;23.260;2024-01-15T09:33:38;93692.56;;;2.80;78.07
12793;BME280;6460;42.684;23.260;2024-01-15T09:36:06;93673.94;;;3.37;75.30
12793;BME280;6460;42.684;23.260;2024-01-15T09:38:35;93671.25;;;3.73;72.94
12793;BME280;6460;42.684;23.260;2024-01-15T09:41:03;93678.75;;;3.96;70.92
12793;BME280;6460;42.684;23.260;2024-01-15T09:43:32;93662.06;;;3.95;69.32
12793;BME280;6460;42.684;23.260;2024-01-15T09:46:00;93649.41;;;4.04;68.84
12793;BME280;6460;42.684;23.260;2024-01-15T09:48:29;93638.72;;;4.16;68.33
12793;BME280;6460;42.684;23.260;2024-01-15T09:51:01;93628.09;;;4.16;67.46
12793;BME280;6460;42.684;23.260;2024-01-15T09:53:30;93624.47;;;4.09;68.16
12793;BME280;6460;42.684;23.260;2024-01-15T09:56:00;93622.34;;;4.14;67.27
12793;BME280;6460;42.684;23.260;2024-01-15T09:58:28;93618.56;;;4.15;68.39
12793;BME280;6460;42.684;23.260;2024-01-15T10:00:56;93616.88;;;4.51;68.00
12793;BME280;6460;42.684;23.260;2024-01-15T10:03:24;93627.75;;;4.89;64.84
12793;BME280;6460;42.684;23.260;2024-01-15T10:05:53;93622.31;;;4.86;62.99
12793;BME280;6460;42.684;23.260;2024-01-15T10:08:22;93617.25;;;4.65;63.45
12793;BME280;6460;42.684;23.260;2024-01-15T10:10:51;93621.56;;;4.42;64.87
12793;BME280;6460;42.684;23.260;2024-01-15T10:13:21;93598.69;;;4.53;66.19
12793;BME280;6460;42.684;23.260;2024-01-15T10:15:48;93612.38;;;4.82;70.82
12793;BME280;6460;42.684;23.260;2024-01-15T10:18:17;93599.84;;;4.83;64.04
12793;BME280;6460;42.684;23.260;2024-01-15T10:20:45;93589.00;;;4.76;61.34
12793;BME280;6460;42.684;23.260;2024-01-15T10:23:15;93600.25;;;4.69;62.15
12793;BME280;6460;42.684;23.260;2024-01-15T10:25:43;93584.13;;;4.94;62.13
12793;BME280;6460;42.684;23.260;2024-01-15T10:28:10;93580.34;;;5.26;61.56
12793;BME280;6460;42.684;23.260;2024-01-15T10:30:40;93567.44;;;5.63;58.16
12793;BME280;6460;42.684;23.260;2024-01-15T10:33:07;93569.84;;;5.17;58.86
12793;BME280;6460;42.684;23.260;2024-01-15T10:35:36;93566.97;;;5.07;59.35
12793;BME280;6460;42.684;23.260;2024-01-15T10:38:04;93562.28;;;5.35;59.00
12793;BME280;6460;42.684;23.260;2024-01-15T10:40:33;93578.44;;;5.26;59.89
12793;BME280;6460;42.684;23.260;2024-01-15T10:43:01;93576.00;;;5.88;57.47
12793;BME280;6460;42.684;23.260;2024-01-15T10:45:30;93579.31;;;5.84;55.86
12793;BME280;6460;42.684;23.260;2024-01-15T10:48:09;93567.75;;;5.77;56.25
12793;BME280;6460;42.684;23.260;2024-01-15T10:50:41;93553.72;;;5.80;55.99
12793;BME280;6460;42.684;23.260;2024-01-15T10:53:11;93549.56;;;5.63;57.07
12793;BME280;6460;42.684;23.260;2024-01-15T10:55:42;93546.31;;;6.08;56.24
12793;BME280;6460;42.684;23.260;2024-01-15T10:58:11;93541.00;;;5.89;55.58
12793;BME280;6460;42.684;23.260;2024-01-15T11:00:39;93552.75;;;6.26;54.80
12793;BME280;6460;42.684;23.260;2024-01-15T11:03:09;93543.56;;;6.66;53.83
12793;BME280;6460;42.684;23.260;2024-01-15T11:05:37;93545.22;;;6.74;52.63
12793;BME280;6460;42.684;23.260;2024-01-15T11:08:06;93530.94;;;6.85;51.76
12793;BME280;6460;42.684;23.260;2024-01-15T11:10:41;93526.69;;;7.30;50.51
12793;BME280;6460;42.684;23.260;2024-01-15T11:13:14;93519.72;;;7.52;48.44
12793;BME280;6460;42.684;23.260;2024-01-15T11:15:56;93526.75;;;7.11;50.14
12793;BME280;6460;42.684;23.260;2024-01-15T11:18:29;93523.53;;;7.80;49.30
12793;BME280;6460;42.684;23.260;2024-01-15T11:21:25;93510.22;;;7.84;48.34
12793;BME280;6460;42.684;23.260;2024-01-15T11:23:54;93502.41;;;8.35;47.09
12793;BME280;6460;42.684;23.260;2024-01-15T11:26:35;93504.84;;;8.17;46.54
12793;BME280;6460;42.684;23.260;2024-01-15T11:29:05;93498.63;;;8.80;46.17
12793;BME280;6460;42.684;23.260;2024-01-15T11:31:58;93494.69;;;9.14;44.46
12793;BME280;6460;42.684;23.260;2024-01-15T11:34:57;93501.50;;;9.01;44.40
12793;BME280;6460;42.684;23.260;2024-01-15T11:37:29;93504.47;;;8.89;44.61
12793;BME280;6460;42.684;23.260;2024-01-15T11:40:03;93503.00;;;8.21;45.33
12793;BME280;6460;42.684;23.260;2024-01-15T11:42:30;93496.88;;;8.54;44.81
12793;BME280;6460;42.684;23.260;2024-01-15T11:44:58;93496.16;;;8.24;45.41
12793;BME280;6460;42.684;23.260;2024-01-15T11:50:42;93486.53;;;7.53;47.07
12793;BME280;6460;42.684;23.260;2024-01-15T11:53:27;93476.81;;;7.71;47.18
12793;BME280;6460;42.684;23.260;2024-01-15T11:55:58;93485.56;;;7.68;46.91
12793;BME280;6460;42.684;23.260;2024-01-15T11:58:26;93474.91;;;7.41;47.88
12793;BME280;6460;42.684;23.260;2024-01-15T12:00:54;93476.94;;;7.52;47.92
12793;BME280;6460;42.684;23.260;2024-01-15T12:03:22;93470.06;;;7.51;47.11
12793;BME280;6460;42.684;23.260;2024-01-15T12:05:52;93476.72;;;6.59;50.05
12793;BME280;6460;42.684;23.260;2024-01-15T12:08:24;93461.66;;;6.96;49.44
12793;BME280;6460;42.684;23.260;2024-01-15T12:10:55;93467.53;;;6.79;50.52
12793;BME280;6460;42.684;23.260;2024-01-15T12:13:23;93461.94;;;6.65;50.88
12793;BME280;6460;42.684;23.260;2024-01-15T12:15:54;93453.81;;;6.58;51.83
12793;BME280;6460;42.684;23.260;2024-01-15T12:18:22;93450.41;;;6.57;51.83
12793;BME280;6460;42.684;23.260;2024-01-15T12:20:54;93452.34;;;6.60;52.13
12793;BME280;6460;42.684;23.260;2024-01-15T12:23:22;93459.53;;;6.56;52.40
12793;BME280;6460;42.684;23.260;2024-01-15T12:25:53;93447.94;;;6.49;52.99
12793;BME280;6460;42.684;23.260;2024-01-15T12:28:21;93445.81;;;6.58;52.48
12793;BME280;6460;42.684;23.260;2024-01-15T12:30:49;93451.53;;;6.33;52.95
12793;BME280;6460;42.684;23.260;2024-01-15T12:33:18;93437.88;;;6.38;54.30
12793;BME280;6460;42.684;23.260;2024-01-15T12:35:47;93435.78;;;6.51;53.59
12793;BME280;6460;42.684;23.260;2024-01-15T12:38:18;93433.44;;;6.46;53.43
12793;BME280;6460;42.684;23.260;2024-01-15T12:40:46;93423.78;;;6.15;54.53
12793;BME280;6460;42.684;23.260;2024-01-15T12:43:15;93415.66;;;6.08;55.59
12793;BME280;6460;42.684;23.260;2024-01-15T12:45:44;93427.19;;;5.93;57.92
12793;BME280;6460;42.684;23.260;2024-01-15T12:53:24;93427.16;;;6.12;59.46
12793;BME280;6460;42.684;23.260;2024-01-15T13:19:07;93409.81;;;5.42;56.62
12793;BME280;6460;42.684;23.260;2024-01-15T13:31:56;93386.09;;;5.56;57.45
12793;BME280;6460;42.684;23.260;2024-01-15T13:37:04;93396.25;;;5.89;57.00
12793;BME280;6460;42.684;23.260;2024-01-15T13:42:06;93388.97;;;5.66;60.59
12793;BME280;6460;42.684;23.260;2024-01-15T13:52:21;93381.91;;;5.55;61.47
12793;BME280;6460;42.684;23.260;2024-01-15T13:54:49;93374.91;;;5.27;63.23
12793;BME280;6460;42.684;23.260;2024-01-15T13:57:17;93370.50;;;5.16;64.92
12793;BME280;6460;42.684;23.260;2024-01-15T14:12:28;93358.50;;;5.45;62.55
12793;BME280;6460;42.684;23.260;2024-01-15T15:07:46;93323.91;;;4.17;75.98
12793;BME280;6460;42.684;23.260;2024-01-15T15:10:16;93322.88;;;4.76;74.04
12793;BME280;6460;42.684;23.260;2024-01-15T15:12:46;93323.88;;;4.68;73.57